createdAt,value
2019-02-25T00:00:46.043Z,48.70
2019-02-25T00:03:27.339Z,49.30
2019-02-25T00:06:10.131Z,50.60
2019-02-25T00:08:51.642Z,51.20
2019-02-25T00:11:33.525Z,51.20
2019-02-25T00:17:40.985Z,52.20
2019-02-25T00:20:23.199Z,51.20
2019-02-25T00:23:05.182Z,51.90
2019-02-25T00:25:46.811Z,52.10
2019-02-25T00:28:29.327Z,52.60
2019-02-25T00:31:11.145Z,51.60
2019-02-25T00:33:53.236Z,52.60
2019-02-25T00:36:35.081Z,53.10
2019-02-25T00:39:16.440Z,53.50
2019-02-25T00:41:58.164Z,53.10
2019-02-25T00:44:40.000Z,53.80
2019-02-25T00:47:10.170Z,54.90
2019-02-25T00:49:59.455Z,54.10
2019-02-25T00:58:25.968Z,54.90
2019-02-25T01:01:15.531Z,55.80
2019-02-25T01:04:04.523Z,56.40
2019-02-25T01:06:53.819Z,57.40
2019-02-25T01:09:42.848Z,57.40
2019-02-25T01:12:31.778Z,58.40
2019-02-25T01:15:20.794Z,58.50
2019-02-25T01:18:10.090Z,58.80
2019-02-25T01:20:39.842Z,59.30
2019-02-25T01:26:06.035Z,60.50
2019-02-25T01:28:55.562Z,61.30
2019-02-25T01:31:44.538Z,61.20
2019-02-25T01:34:33.535Z,61.60
2019-02-25T01:37:15.096Z,62.70
2019-02-25T01:39:56.307Z,62.60
2019-02-25T01:42:38.368Z,63.30
2019-02-25T01:45:19.788Z,64.00
2019-02-25T01:48:01.634Z,64.70
2019-02-25T01:53:27.178Z,65.90
2019-02-25T01:56:08.612Z,66.30
2019-02-25T01:58:50.215Z,65.50
2019-02-25T02:01:32.031Z,67.00
2019-02-25T02:04:13.922Z,67.50
2019-02-25T02:06:55.965Z,68.70
2019-02-25T02:09:26.070Z,68.80
2019-02-25T02:12:15.362Z,69.10
2019-02-25T02:15:04.722Z,68.60
2019-02-25T02:17:53.638Z,69.00
2019-02-25T02:20:42.791Z,70.60
2019-02-25T02:23:31.912Z,71.30
2019-02-25T02:26:21.210Z,72.10
2019-02-25T02:29:30.682Z,71.80
2019-02-25T02:32:12.488Z,72.20
2019-02-25T02:34:54.597Z,72.60
2019-02-25T02:37:35.859Z,73.60
2019-02-25T02:40:17.847Z,74.30
2019-02-25T02:42:59.790Z,74.10
2019-02-25T02:45:41.597Z,73.80
2019-02-25T02:48:23.710Z,73.50
2019-02-25T02:51:06.102Z,74.60
2019-02-25T02:54:07.328Z,76.40
2019-02-25T03:00:14.786Z,75.70
2019-02-25T03:02:56.108Z,76.60
2019-02-25T03:05:26.159Z,76.80
2019-02-25T03:07:57.906Z,78.00
2019-02-25T03:10:27.762Z,77.40
2019-02-25T03:12:57.567Z,79.10
2019-02-25T03:15:30.634Z,78.50
2019-02-25T03:18:01.914Z,79.10
2019-02-25T03:20:50.914Z,79.10
2019-02-25T03:23:39.958Z,78.80
2019-02-25T03:26:11.345Z,79.50
2019-02-25T03:29:00.354Z,80.80
2019-02-25T03:31:49.398Z,80.40
2019-02-25T03:37:46.412Z,81.50
2019-02-25T03:40:35.435Z,82.80
2019-02-25T03:43:24.435Z,83.10
2019-02-25T03:46:13.507Z,83.80
2019-02-25T03:49:02.478Z,83.30
2019-02-25T03:51:51.419Z,82.90
2019-02-25T03:54:40.391Z,83.30
2019-02-25T03:57:29.497Z,85.00
2019-02-25T04:00:19.389Z,86.60
2019-02-25T04:03:08.703Z,87.60
2019-02-25T04:05:57.714Z,88.60
2019-02-25T04:08:46.676Z,87.90
2019-02-25T04:11:35.780Z,87.20
2019-02-25T04:14:24.759Z,87.70
2019-02-25T04:17:14.082Z,90.20
2019-02-25T04:20:03.264Z,89.70
2019-02-25T04:22:45.207Z,90.30
2019-02-25T04:25:27.367Z,91.00
2019-02-25T04:30:51.659Z,91.30
2019-02-25T04:36:15.877Z,92.10
2019-02-25T04:38:57.785Z,92.90
2019-02-25T04:41:39.764Z,92.70
2019-02-25T04:44:21.554Z,93.20
2019-02-25T04:47:03.466Z,93.20
2019-02-25T04:49:45.627Z,93.70
2019-02-25T04:52:27.878Z,93.60
2019-02-25T04:55:28.927Z,94.30
2019-02-25T04:58:10.532Z,94.60
2019-02-25T05:00:52.240Z,95.20
2019-02-25T05:03:34.224Z,95.40
2019-02-25T05:06:15.771Z,96.20
2019-02-25T05:08:57.702Z,97.20
2019-02-25T05:11:42.566Z,96.90
2019-02-25T05:14:24.404Z,97.10
2019-02-25T05:17:06.499Z,97.50
2019-02-25T05:19:36.560Z,98.30
2019-02-25T05:22:06.399Z,97.90
2019-02-25T05:24:36.137Z,98.00
2019-02-25T05:27:25.045Z,97.70
2019-02-25T05:30:13.969Z,97.30
2019-02-25T05:33:02.989Z,98.60
2019-02-25T05:35:51.903Z,99.30
2019-02-25T05:38:41.048Z,98.50
2019-02-25T05:41:30.068Z,99.30
2019-02-25T05:44:19.069Z,99.90
2019-02-25T05:47:08.241Z,99.90
2019-02-25T05:49:57.491Z,99.90
2019-02-25T05:53:05.584Z,99.90
2019-02-25T05:55:35.623Z,99.90
2019-02-25T05:58:24.631Z,99.90
2019-02-25T06:01:13.614Z,99.90
2019-02-25T06:04:02.613Z,99.90
2019-02-25T06:06:51.794Z,99.90
2019-02-25T06:09:21.659Z,99.90
2019-02-25T06:11:51.422Z,99.90
2019-02-25T06:14:40.605Z,99.90
2019-02-25T06:17:29.604Z,99.90
2019-02-25T06:20:18.841Z,99.90
2019-02-25T06:23:08.085Z,99.90
2019-02-25T06:25:57.036Z,99.90
2019-02-25T06:28:27.039Z,99.90
2019-02-25T06:30:56.786Z,99.90
2019-02-25T06:33:47.480Z,99.90
2019-02-25T06:36:55.462Z,99.90
2019-02-25T06:39:44.678Z,99.90
2019-02-25T06:42:33.869Z,99.90
2019-02-25T06:45:23.355Z,99.90
2019-02-25T06:48:12.350Z,99.90
2019-02-25T06:54:14.872Z,99.90
2019-02-25T06:57:04.346Z,99.90
2019-02-25T06:59:53.259Z,99.90
2019-02-25T07:02:42.214Z,99.90
2019-02-25T07:05:57.051Z,99.90
2019-02-25T07:08:57.583Z,99.90
2019-02-25T07:11:48.278Z,99.90
2019-02-25T07:17:32.228Z,99.90
2019-02-25T07:20:33.271Z,99.90
2019-02-25T07:23:34.542Z,99.90
2019-02-25T07:26:41.723Z,99.90
2019-02-25T07:29:42.419Z,99.90
2019-02-25T07:32:43.290Z,99.90
2019-02-25T07:35:44.467Z,99.90
2019-02-25T07:38:39.352Z,99.90
2019-02-25T07:41:46.231Z,99.90
2019-02-25T07:44:35.436Z,99.90
2019-02-25T07:47:43.447Z,99.90
2019-02-25T07:50:51.743Z,99.90
2019-02-25T07:53:59.748Z,99.90
2019-02-25T07:57:07.762Z,99.90
2019-02-25T08:00:15.739Z,99.90
2019-02-25T08:03:16.978Z,99.40
2019-02-25T08:06:18.080Z,99.40
2019-02-25T08:09:19.131Z,98.60
2019-02-25T08:12:20.246Z,98.00
2019-02-25T08:15:21.242Z,96.50
2019-02-25T08:18:22.491Z,96.90
2019-02-25T08:21:23.618Z,96.40
2019-02-25T08:24:30.639Z,96.10
2019-02-25T08:27:17.328Z,95.80
2019-02-25T08:30:18.218Z,96.40
2019-02-25T08:33:22.302Z,95.70
2019-02-25T08:36:18.232Z,94.70
2019-02-25T08:39:10.602Z,93.20
2019-02-25T08:42:11.635Z,92.50
2019-02-25T08:45:15.658Z,91.30
2019-02-25T08:48:02.819Z,89.30
2019-02-25T08:50:44.593Z,87.90
2019-02-25T08:53:25.997Z,84.40
2019-02-25T08:56:07.933Z,83.70
2019-02-25T08:58:49.496Z,82.60
2019-02-25T09:01:31.400Z,81.70
2019-02-25T09:04:13.747Z,80.90
2019-02-25T09:06:55.655Z,80.00
2019-02-25T09:09:37.126Z,79.10
2019-02-25T09:12:19.067Z,78.00
2019-02-25T09:15:01.430Z,75.30
2019-02-25T09:17:44.241Z,75.60
2019-02-25T09:20:26.178Z,75.10
2019-02-25T09:23:07.910Z,74.50
2019-02-25T09:25:50.186Z,71.90
2019-02-25T09:28:31.979Z,71.40
2019-02-25T09:31:13.584Z,71.20
2019-02-25T09:33:55.716Z,70.10
2019-02-25T09:39:20.556Z,69.90
2019-02-25T09:42:02.174Z,69.00
2019-02-25T09:44:44.023Z,67.90
2019-02-25T09:50:08.267Z,65.40
2019-02-25T09:52:49.598Z,65.10
2019-02-25T09:55:32.073Z,64.30
2019-02-25T09:58:02.090Z,62.80
2019-02-25T10:00:46.121Z,61.30
2019-02-25T10:03:27.786Z,59.30
2019-02-25T10:06:09.232Z,58.80
2019-02-25T10:08:50.534Z,57.30
2019-02-25T10:11:32.618Z,57.10
2019-02-25T10:14:14.743Z,54.80
2019-02-25T10:19:39.790Z,55.30
2019-02-25T10:22:21.850Z,54.50
2019-02-25T10:25:03.158Z,53.90
2019-02-25T10:27:33.163Z,53.20
2019-02-25T10:30:04.112Z,53.00
2019-02-25T10:33:13.389Z,53.10
2019-02-25T10:36:02.299Z,53.80
2019-02-25T10:38:51.256Z,53.30
2019-02-25T10:41:40.502Z,52.70
2019-02-25T10:44:29.712Z,51.90
2019-02-25T10:47:39.227Z,51.40
2019-02-25T10:50:28.832Z,52.00
2019-02-25T10:53:38.246Z,52.40
2019-02-25T10:56:47.339Z,53.00
2019-02-25T10:59:56.245Z,53.20
2019-02-25T11:02:26.642Z,53.30
2019-02-25T11:05:15.662Z,53.80
2019-02-25T11:11:36.982Z,53.70
2019-02-25T11:14:25.911Z,52.70
2019-02-25T11:23:37.343Z,52.70
2019-02-25T11:36:07.007Z,53.40
2019-02-25T11:38:57.831Z,53.40
2019-02-25T11:42:07.850Z,54.20
2019-02-25T11:45:16.261Z,52.70
2019-02-25T11:48:05.235Z,52.60
2019-02-25T11:50:54.247Z,53.20
2019-02-25T11:53:43.242Z,52.50
2019-02-25T11:56:32.165Z,50.70
2019-02-25T11:59:21.175Z,50.60
2019-02-25T12:02:02.582Z,50.50
2019-02-25T12:04:44.603Z,51.50
2019-02-25T12:07:26.398Z,49.40
2019-02-25T12:10:07.707Z,48.50
2019-02-25T12:12:49.777Z,49.40
2019-02-25T12:15:31.835Z,49.00
2019-02-25T12:18:13.770Z,50.00
2019-02-25T12:20:55.855Z,50.10
2019-02-25T12:23:37.940Z,50.10
2019-02-25T12:26:20.207Z,50.10
2019-02-25T12:29:10.642Z,50.10
2019-02-25T12:31:45.235Z,50.50
2019-02-25T12:34:27.767Z,49.80
2019-02-25T12:36:57.616Z,49.20
2019-02-25T12:39:46.646Z,49.40
2019-02-25T12:42:35.631Z,49.20
2019-02-25T12:48:38.039Z,49.00
2019-02-25T12:54:15.355Z,48.80
2019-02-25T12:57:04.262Z,48.40
2019-02-25T12:59:53.211Z,48.50
2019-02-25T13:02:34.448Z,48.80
2019-02-25T13:05:16.972Z,48.40
2019-02-25T13:07:58.639Z,48.00
2019-02-25T13:10:40.243Z,47.90
2019-02-25T13:13:10.023Z,48.00
2019-02-25T13:15:59.127Z,48.10
2019-02-25T13:18:48.460Z,47.20
2019-02-25T13:21:56.552Z,47.30
2019-02-25T13:24:45.569Z,47.20
2019-02-25T13:27:34.810Z,47.30
2019-02-25T13:30:24.203Z,47.10
2019-02-25T13:36:21.302Z,46.70
2019-02-25T13:39:29.465Z,46.40
2019-02-25T13:42:18.497Z,45.90
2019-02-25T13:45:27.193Z,46.00
2019-02-25T13:48:16.289Z,45.60
2019-02-25T13:51:05.335Z,46.40
2019-02-25T13:53:35.291Z,46.20
2019-02-25T13:56:24.754Z,46.50
2019-02-25T13:59:14.275Z,46.20
2019-02-25T14:02:04.021Z,45.20
2019-02-25T14:04:53.320Z,45.30
2019-02-25T14:07:23.602Z,45.10
2019-02-25T14:10:14.128Z,45.80
2019-02-25T14:13:03.446Z,45.20
2019-02-25T14:15:53.122Z,44.60
2019-02-25T14:18:42.432Z,44.60
2019-02-25T14:21:31.772Z,45.10
2019-02-25T14:24:41.202Z,45.30
2019-02-25T14:27:30.577Z,45.70
2019-02-25T14:30:20.562Z,45.70
2019-02-25T14:33:09.887Z,46.10
2019-02-25T14:35:58.995Z,46.00
2019-02-25T14:38:47.958Z,46.20
2019-02-25T14:41:37.179Z,47.50
2019-02-25T14:44:29.734Z,47.40
2019-02-25T14:47:37.566Z,47.40
2019-02-25T14:50:26.803Z,47.90
2019-02-25T14:53:16.086Z,49.00
2019-02-25T14:56:05.150Z,48.70
2019-02-25T14:58:54.350Z,48.70
2019-02-25T15:01:43.587Z,49.40
2019-02-25T15:04:25.520Z,49.70
2019-02-25T15:07:08.639Z,50.10
2019-02-25T15:09:51.324Z,50.00
2019-02-25T15:12:34.306Z,50.40
2019-02-25T15:15:16.476Z,50.30
2019-02-25T15:20:41.807Z,51.60
2019-02-25T15:23:25.392Z,52.30
2019-02-25T15:26:06.983Z,52.40
2019-02-25T15:28:51.805Z,52.90
2019-02-25T15:31:33.619Z,52.70
2019-02-25T15:34:15.475Z,53.20
2019-02-25T15:36:46.759Z,53.80
2019-02-25T15:39:36.081Z,54.10
2019-02-25T15:42:05.973Z,54.10
2019-02-25T15:44:57.469Z,54.50
2019-02-25T15:48:05.730Z,54.00
2019-02-25T15:50:55.457Z,54.30
2019-02-25T15:54:04.726Z,54.00
2019-02-25T15:56:53.743Z,54.40
2019-02-25T15:59:42.869Z,55.10
2019-02-25T16:02:24.909Z,55.30
2019-02-25T16:05:07.963Z,55.40
2019-02-25T16:07:52.270Z,56.00
2019-02-25T16:10:35.108Z,56.90
2019-02-25T16:21:54.683Z,57.10
2019-02-25T16:24:36.272Z,57.10
2019-02-25T16:27:19.411Z,57.90
2019-02-25T16:33:39.922Z,57.50
2019-02-25T16:36:23.586Z,57.70
2019-02-25T16:39:07.239Z,58.60
2019-02-25T16:41:49.051Z,58.60
2019-02-25T16:44:31.007Z,59.70
2019-02-25T16:47:13.926Z,60.20
2019-02-25T16:49:56.395Z,61.10
2019-02-25T16:52:41.136Z,61.40
2019-02-25T16:55:23.377Z,62.30
2019-02-25T16:58:07.011Z,63.30
2019-02-25T17:00:49.225Z,64.70
2019-02-25T17:03:19.304Z,66.80
2019-02-25T17:06:09.207Z,67.40
2019-02-25T17:12:31.549Z,70.00
2019-02-25T17:15:39.618Z,72.10
2019-02-25T17:18:30.913Z,73.60
2019-02-25T17:21:19.378Z,75.40
2019-02-25T17:24:09.519Z,76.40
2019-02-25T17:27:33.396Z,78.40
2019-02-25T17:30:28.219Z,80.30
2019-02-25T17:33:17.363Z,83.80
2019-02-25T17:39:22.098Z,89.90
2019-02-25T17:42:12.140Z,92.00
2019-02-25T17:45:22.428Z,93.60
2019-02-25T17:48:30.636Z,95.90
2019-02-25T17:51:20.847Z,96.80
2019-02-25T17:54:31.217Z,97.40
2019-02-25T17:57:39.791Z,99.10
2019-02-25T18:00:47.956Z,99.90
2019-02-25T18:03:30.364Z,99.90
2019-02-25T18:06:12.372Z,99.90
2019-02-25T18:08:55.476Z,99.90
2019-02-25T18:11:57.030Z,99.90
2019-02-25T18:14:40.985Z,99.90
2019-02-25T18:17:23.747Z,99.90
2019-02-25T18:20:05.656Z,99.90
2019-02-25T18:22:50.823Z,99.90
2019-02-25T18:25:30.796Z,99.90
2019-02-25T18:28:13.062Z,99.90
2019-02-25T18:30:44.463Z,99.90
2019-02-25T18:33:52.930Z,99.90
2019-02-25T18:36:42.174Z,99.90
2019-02-25T18:39:31.634Z,99.90
2019-02-25T18:42:43.062Z,99.90
2019-02-25T18:45:50.975Z,99.90
2019-02-25T18:48:40.859Z,99.90
2019-02-25T18:51:50.138Z,99.90
2019-02-25T18:54:21.303Z,99.90
2019-02-25T18:57:11.222Z,99.90
2019-02-25T18:59:41.272Z,99.90
2019-02-25T19:02:12.705Z,99.90
2019-02-25T19:05:04.333Z,99.90
2019-02-25T19:07:34.202Z,99.90
2019-02-25T19:10:04.363Z,99.90
2019-02-25T19:15:30.319Z,99.90
2019-02-25T19:18:19.769Z,99.90
2019-02-25T19:21:10.879Z,99.90
2019-02-25T19:24:18.952Z,99.90
2019-02-25T19:27:29.465Z,99.90
2019-02-25T19:30:38.590Z,99.90
2019-02-25T19:33:27.522Z,99.90
2019-02-25T19:35:58.785Z,99.90
2019-02-25T19:38:50.283Z,99.90
2019-02-25T20:21:30.938Z,99.90
2019-02-25T20:24:32.119Z,99.90
2019-02-25T20:27:13.484Z,99.90
2019-02-25T20:29:56.302Z,99.90
2019-02-25T20:32:40.750Z,99.90
2019-02-25T20:38:06.187Z,99.90
2019-02-25T20:40:50.803Z,99.90
2019-02-25T20:43:32.505Z,99.90
2019-02-25T20:46:15.008Z,99.90
2019-02-25T20:49:00.029Z,99.90
2019-02-25T20:51:43.479Z,99.90
2019-02-25T20:54:25.481Z,99.90
2019-02-25T20:57:08.450Z,99.90
2019-02-25T20:59:51.007Z,99.90
2019-02-25T21:02:33.747Z,99.90
2019-02-25T21:05:16.920Z,99.90
2019-02-25T21:07:59.906Z,99.90
2019-02-25T21:10:32.662Z,99.90
2019-02-25T21:13:40.274Z,99.90
2019-02-25T21:16:51.589Z,99.90
2019-02-25T21:20:00.343Z,99.90
2019-02-25T21:23:10.680Z,99.90
2019-02-25T21:26:19.462Z,99.90
2019-02-25T21:29:09.722Z,99.90
2019-02-25T21:32:20.006Z,99.90
2019-02-25T21:35:30.140Z,99.90
2019-02-25T21:38:38.758Z,99.90
2019-02-25T21:41:28.506Z,99.90
2019-02-25T21:44:19.455Z,99.90
2019-02-25T21:47:28.786Z,99.90
2019-02-25T21:50:38.366Z,99.90
2019-02-25T21:53:47.931Z,99.90
2019-02-25T21:56:36.898Z,99.90
2019-02-25T21:59:25.938Z,99.90
2019-02-25T22:02:15.343Z,99.90
2019-02-25T22:05:07.902Z,99.90
2019-02-25T22:08:14.748Z,99.90
2019-02-25T22:10:45.821Z,99.90
2019-02-25T22:13:54.875Z,99.90
2019-02-25T22:16:44.434Z,99.90
2019-02-25T22:19:53.781Z,99.90
2019-02-25T22:22:43.221Z,99.90
2019-02-25T22:25:32.260Z,99.90
2019-02-25T22:28:21.420Z,99.90
2019-02-25T22:31:11.686Z,99.90
2019-02-25T22:34:22.988Z,99.90
2019-02-25T22:37:30.751Z,99.90
2019-02-25T22:40:19.961Z,99.90
2019-02-25T22:43:10.076Z,99.90
2019-02-25T22:46:11.769Z,99.90
2019-02-25T22:48:53.842Z,99.90
2019-02-25T22:51:37.419Z,99.90
2019-02-25T22:54:21.395Z,99.90
2019-02-25T22:57:02.968Z,99.90
2019-02-25T22:59:45.286Z,99.90
2019-02-25T23:02:28.151Z,99.90
2019-02-25T23:05:12.699Z,99.90
2019-02-25T23:07:54.713Z,99.90
2019-02-25T23:10:39.999Z,99.90
2019-02-25T23:13:22.470Z,99.90
2019-02-25T23:16:03.758Z,99.90
2019-02-25T23:18:47.774Z,99.90
2019-02-25T23:21:31.273Z,99.90
2019-02-25T23:24:12.792Z,99.90
2019-02-25T23:26:42.710Z,99.90
2019-02-25T23:29:50.839Z,99.90
2019-02-25T23:32:40.224Z,99.90
2019-02-25T23:38:17.623Z,99.90
2019-02-25T23:41:03.260Z,99.90
2019-02-25T23:43:44.539Z,99.90
2019-02-25T23:46:14.796Z,99.90
2019-02-25T23:49:03.851Z,99.90
2019-02-25T23:51:53.039Z,99.90
2019-02-25T23:54:45.296Z,99.90
2019-02-25T23:57:52.227Z,99.90
